Time;durP1;ratioP1;P1;durP2;ratioP2;P2;SDS_P1;SDS_P2;PMS_P1;PMS_P2;Temp;Humidity;BMP_temperature;BMP_pressure;BME280_temperature;BME280_humidity;BME280_pressure;Samples;Min_cycle;Max_cycle;Signal;HPM_P1;HPM_P2
2021/10/29 00:02:12;;;;;;;29.77;17.70;;;5.20;99.90;;;;;;5055153;28;20032;-66
2021/10/29 00:04:38;;;;;;;32.22;19.98;;;5.30;99.90;;;;;;5054467;28;20070;-67
2021/10/29 00:07:04;;;;;;;26.58;16.77;;;5.40;99.90;;;;;;5054411;28;20017;-66
2021/10/29 00:09:32;;;;;;;38.30;17.40;;;5.40;99.90;;;;;;5054081;28;20025;-67
2021/10/29 00:11:58;;;;;;;29.35;16.40;;;5.50;99.90;;;;;;5054372;28;20020;-67
2021/10/29 00:14:25;;;;;;;43.50;16.50;;;5.40;99.90;;;;;;5053453;28;20029;-67
2021/10/29 00:16:51;;;;;;;27.50;16.27;;;5.30;99.90;;;;;;5054077;28;20371;-67
2021/10/29 00:19:18;;;;;;;25.90;15.45;;;5.30;99.90;;;;;;5036433;28;20029;-68
2021/10/29 00:21:44;;;;;;;40.42;17.23;;;5.10;99.90;;;;;;5053832;28;20037;-67
2021/10/29 00:24:10;;;;;;;40.70;18.27;;;5.10;99.90;;;;;;5053577;28;20090;-67
2021/10/29 00:26:35;;;;;;;35.15;18.17;;;5.10;99.90;;;;;;5052843;28;20037;-67
2021/10/29 00:29:01;;;;;;;32.13;17.80;;;5.20;99.90;;;;;;5053788;28;20023;-67
2021/10/29 00:31:27;;;;;;;30.20;18.90;;;5.00;99.90;;;;;;5053882;28;20021;-67
2021/10/29 00:33:52;;;;;;;29.58;19.05;;;4.90;99.90;;;;;;5053820;28;20053;-67
2021/10/29 00:36:18;;;;;;;31.83;18.23;;;5.00;99.90;;;;;;5052903;28;20042;-68
2021/10/29 00:38:44;;;;;;;28.52;17.58;;;5.00;99.90;;;;;;5053449;28;20495;-67
2021/10/29 00:41:09;;;;;;;28.08;18.65;;;5.00;99.90;;;;;;5053341;28;20032;-67
2021/10/29 00:43:35;;;;;;;25.35;16.00;;;5.10;99.90;;;;;;5035367;28;20082;-67
2021/10/29 00:46:01;;;;;;;22.08;15.85;;;5.00;99.90;;;;;;5052761;28;20036;-67
2021/10/29 00:48:26;;;;;;;32.38;17.77;;;5.10;99.90;;;;;;5053335;28;20020;-67
2021/10/29 00:50:52;;;;;;;27.73;17.55;;;5.10;99.90;;;;;;5052490;28;20035;-67
2021/10/29 00:53:18;;;;;;;35.45;17.80;;;5.10;99.90;;;;;;5053366;28;20052;-66
2021/10/29 00:55:45;;;;;;;27.20;17.33;;;5.20;99.90;;;;;;5052229;28;20021;-67
2021/10/29 00:58:10;;;;;;;28.33;16.73;;;5.10;99.90;;;;;;5052968;28;20029;-67
2021/10/29 01:00:36;;;;;;;27.27;17.30;;;5.70;99.90;;;;;;5053245;28;20021;-66
2021/10/29 01:03:02;;;;;;;30.63;17.95;;;5.10;99.90;;;;;;5052957;28;20021;-68
2021/10/29 01:05:27;;;;;;;33.85;17.77;;;5.00;99.90;;;;;;5052449;28;20029;-65
2021/10/29 01:07:55;;;;;;;24.40;15.75;;;5.00;99.90;;;;;;5053024;28;20048;-66
2021/10/29 01:10:21;;;;;;;23.17;15.65;;;5.00;99.90;;;;;;5052506;28;20025;-67
2021/10/29 01:12:46;;;;;;;28.40;14.57;;;4.90;99.90;;;;;;5053090;28;20494;-68
2021/10/29 01:15:12;;;;;;;19.65;14.05;;;4.90;99.90;;;;;;5052328;28;20056;-66
2021/10/29 01:17:38;;;;;;;25.77;14.88;;;4.90;99.90;;;;;;5052984;28;20031;-66
2021/10/29 01:20:06;;;;;;;24.08;14.70;;;4.80;99.90;;;;;;5052677;28;20051;-65
2021/10/29 01:22:31;;;;;;;20.67;14.45;;;4.90;99.90;;;;;;5052809;28;20075;-66
2021/10/29 01:24:57;;;;;;;18.33;12.98;;;4.90;99.90;;;;;;5051629;28;20037;-66
2021/10/29 01:27:23;;;;;;;21.67;14.07;;;4.90;99.90;;;;;;5052352;28;20082;-66
2021/10/29 01:29:51;;;;;;;18.00;12.70;;;4.70;99.90;;;;;;5052476;28;20391;-66
2021/10/29 01:32:18;;;;;;;17.65;12.20;;;4.70;99.90;;;;;;5052490;28;20100;-67
2021/10/29 01:34:44;;;;;;;17.65;12.93;;;4.60;99.90;;;;;;5051909;28;20021;-66
2021/10/29 01:37:11;;;;;;;16.42;12.20;;;4.60;99.90;;;;;;5034576;28;20048;-65
2021/10/29 01:39:38;;;;;;;18.48;12.07;;;4.60;99.90;;;;;;5052355;28;20057;-67
2021/10/29 01:42:04;;;;;;;17.45;12.25;;;4.60;99.90;;;;;;5052109;28;20028;-66
2021/10/29 01:44:30;;;;;;;24.00;15.65;;;4.50;99.90;;;;;;5051618;28;20114;-66
2021/10/29 01:46:56;;;;;;;24.30;16.30;;;4.50;99.90;;;;;;5052385;28;20035;-66
2021/10/29 01:49:21;;;;;;;22.33;15.02;;;4.50;99.90;;;;;;5034478;28;20447;-66
2021/10/29 01:51:47;;;;;;;21.33;14.00;;;4.40;99.90;;;;;;5052379;28;20048;-66
2021/10/29 01:54:13;;;;;;;37.95;16.15;;;4.50;99.90;;;;;;5051879;28;20025;-65
2021/10/29 01:56:39;;;;;;;18.17;12.95;;;4.10;99.90;;;;;;5051447;28;20036;-66
2021/10/29 01:59:05;;;;;;;21.25;13.77;;;4.10;99.90;;;;;;5052081;28;20033;-67
2021/10/29 02:01:31;;;;;;;20.65;13.85;;;4.00;99.90;;;;;;5052328;28;20032;-66
2021/10/29 02:03:58;;;;;;;21.02;14.75;;;4.00;99.90;;;;;;5052336;28;20104;-66
2021/10/29 02:06:24;;;;;;;20.20;14.30;;;4.00;99.90;;;;;;5051527;28;20025;-66
2021/10/29 02:08:50;;;;;;;22.83;15.05;;;4.10;99.90;;;;;;5052013;28;20017;-66
2021/10/29 02:11:16;;;;;;;21.08;13.70;;;3.90;99.90;;;;;;5051930;28;20475;-66
2021/10/29 02:13:42;;;;;;;37.33;13.18;;;3.80;99.90;;;;;;5052169;28;20063;-66
2021/10/29 02:16:08;;;;;;;16.60;12.02;;;3.70;99.90;;;;;;5051569;28;20021;-66
2021/10/29 02:18:34;;;;;;;22.55;13.02;;;3.50;99.90;;;;;;5052033;28;20029;-66
2021/10/29 02:20:59;;;;;;;18.70;12.02;;;3.40;99.90;;;;;;5052245;28;20029;-67
2021/10/29 02:23:26;;;;;;;21.00;13.75;;;3.50;99.90;;;;;;5053733;28;20032;-65
2021/10/29 02:25:51;;;;;;;21.00;14.40;;;3.40;99.90;;;;;;5052650;28;20535;-66
2021/10/29 02:28:20;;;;;;;20.80;14.43;;;3.50;99.90;;;;;;5052454;28;20110;-66
2021/10/29 02:30:46;;;;;;;22.20;14.40;;;3.60;99.90;;;;;;5052566;28;20021;-66
2021/10/29 02:33:14;;;;;;;23.85;12.65;;;3.60;99.90;;;;;;5052710;28;20025;-65
2021/10/29 02:35:40;;;;;;;21.02;14.45;;;3.60;99.90;;;;;;5052553;28;20029;-67
2021/10/29 02:38:05;;;;;;;25.40;13.73;;;3.70;99.90;;;;;;5052902;28;20035;-65
2021/10/29 02:40:32;;;;;;;22.98;13.55;;;3.70;99.90;;;;;;5051547;28;20471;-67
2021/10/29 02:42:58;;;;;;;22.02;14.38;;;3.70;99.90;;;;;;5051812;28;20028;-66
2021/10/29 02:45:23;;;;;;;22.55;14.43;;;3.80;99.90;;;;;;5050962;28;20053;-66
2021/10/29 02:47:49;;;;;;;25.73;14.48;;;3.90;99.90;;;;;;5051664;28;20064;-66
2021/10/29 02:50:17;;;;;;;19.95;14.05;;;3.70;99.90;;;;;;5051810;28;20025;-67
2021/10/29 02:52:43;;;;;;;29.00;12.18;;;3.70;99.90;;;;;;5051326;28;20016;-68
2021/10/29 02:55:10;;;;;;;20.73;13.73;;;3.80;99.90;;;;;;5050444;28;20029;-68
2021/10/29 02:57:36;;;;;;;28.60;14.02;;;3.80;99.90;;;;;;5051760;28;20079;-65
2021/10/29 03:00:14;;;;;;;40.50;14.93;;;3.80;99.90;;;;;;5051724;28;20049;-67
2021/10/29 03:02:41;;;;;;;26.70;13.75;;;3.90;99.90;;;;;;5051328;28;20098;-65
2021/10/29 03:05:08;;;;;;;36.30;12.57;;;3.90;99.90;;;;;;5050280;28;20025;-67
2021/10/29 03:07:34;;;;;;;52.92;13.80;;;3.90;99.90;;;;;;5051393;28;20096;-67
2021/10/29 03:09:59;;;;;;;22.00;14.25;;;3.90;99.90;;;;;;5051077;28;20501;-67
2021/10/29 03:12:25;;;;;;;26.60;13.80;;;3.90;99.90;;;;;;5051107;28;20092;-67
2021/10/29 03:14:51;;;;;;;22.42;13.45;;;3.80;99.90;;;;;;5053471;28;20497;-67
2021/10/29 03:17:17;;;;;;;21.77;14.07;;;3.70;99.90;;;;;;5055206;28;20419;-66
2021/10/29 03:19:43;;;;;;;19.50;13.50;;;3.70;99.90;;;;;;5055092;28;20038;-65
2021/10/29 03:22:09;;;;;;;18.08;12.25;;;3.70;99.90;;;;;;5055220;28;20029;-67
2021/10/29 03:24:34;;;;;;;20.67;13.55;;;3.60;99.90;;;;;;5054410;28;20033;-67
2021/10/29 03:27:00;;;;;;;17.48;12.63;;;3.70;99.90;;;;;;5067714;22;20048;-64
2021/10/29 03:29:26;;;;;;;17.65;12.75;;;3.70;99.90;;;;;;5049598;28;20037;-62
2021/10/29 03:31:52;;;;;;;17.58;11.95;;;3.70;99.90;;;;;;5055180;28;20024;-64
2021/10/29 03:34:18;;;;;;;16.85;12.20;;;3.60;99.90;;;;;;5054717;28;20025;-64
2021/10/29 03:36:44;;;;;;;16.15;12.20;;;3.60;99.90;;;;;;5055331;28;20037;-63
2021/10/29 03:39:14;;;;;;;16.65;10.90;;;3.60;99.90;;;;;;5055304;28;20461;-62
2021/10/29 03:41:48;;;;;;;13.13;10.05;;;3.60;99.90;;;;;;5037178;28;20024;-63
2021/10/29 03:46:40;;;;;;;18.17;11.85;;;3.70;99.90;;;;;;5054247;28;20025;-64
2021/10/29 03:51:54;;;;;;;15.88;11.77;;;3.70;99.90;;;;;;5054936;28;20025;-64
2021/10/29 03:54:38;;;;;;;18.52;10.90;;;3.80;99.90;;;;;;5054371;28;20491;-64
2021/10/29 03:57:22;;;;;;;16.95;11.45;;;3.80;99.90;;;;;;5054423;28;20087;-64
2021/10/29 03:59:49;;;;;;;14.38;10.50;;;3.70;99.90;;;;;;5054921;28;20033;-64
2021/10/29 04:02:14;;;;;;;13.80;10.40;;;3.70;99.90;;;;;;5054921;28;20029;-64
2021/10/29 04:04:40;;;;;;;19.98;10.75;;;3.70;99.90;;;;;;5053938;28;20028;-63
2021/10/29 04:07:06;;;;;;;22.63;9.70;;;3.60;99.90;;;;;;5054602;28;20104;-64
2021/10/29 04:09:32;;;;;;;17.75;9.00;;;3.80;99.90;;;;;;5054731;28;20025;-64
2021/10/29 04:11:57;;;;;;;13.07;10.07;;;3.50;99.90;;;;;;5054432;28;20118;-64
2021/10/29 04:14:27;;;;;;;13.27;10.35;;;3.50;99.90;;;;;;5057028;28;20021;-64
2021/10/29 04:16:53;;;;;;;11.23;9.48;;;3.50;99.90;;;;;;5055529;28;20025;-64
2021/10/29 04:19:19;;;;;;;18.30;11.60;;;3.50;99.90;;;;;;5054365;28;20486;-64
2021/10/29 04:21:45;;;;;;;27.02;11.90;;;3.70;99.90;;;;;;5041315;28;20080;-71
2021/10/29 04:24:10;;;;;;;14.65;11.13;;;3.60;99.90;;;;;;5050864;28;20083;-71
2021/10/29 04:26:37;;;;;;;61.45;12.75;;;3.70;99.90;;;;;;5047159;28;20083;-71
2021/10/29 04:29:12;;;;;;;18.75;12.80;;;3.70;99.90;;;;;;5044063;28;20103;-71
2021/10/29 04:31:47;;;;;;;14.30;10.80;;;3.60;99.90;;;;;;5035820;28;20090;-70
2021/10/29 04:34:13;;;;;;;20.08;12.77;;;3.50;99.90;;;;;;5053918;28;20545;-71
2021/10/29 04:36:39;;;;;;;17.48;10.75;;;3.40;99.90;;;;;;5051788;28;20779;-71
2021/10/29 04:39:11;;;;;;;19.30;11.88;;;3.40;99.90;;;;;;5051981;28;20032;-71
2021/10/29 04:41:37;;;;;;;22.30;11.20;;;3.50;99.90;;;;;;5034280;28;20029;-70
2021/10/29 04:44:03;;;;;;;23.42;12.35;;;3.40;99.90;;;;;;5033331;28;20225;-71
2021/10/29 04:46:30;;;;;;;28.70;12.07;;;3.40;99.90;;;;;;5033162;28;20647;-71
2021/10/29 04:48:56;;;;;;;17.08;11.82;;;3.30;99.90;;;;;;5033863;28;20049;-70
2021/10/29 04:51:22;;;;;;;31.85;9.82;;;3.20;99.90;;;;;;5015906;28;20025;-70
2021/10/29 04:53:48;;;;;;;40.10;10.63;;;3.00;99.90;;;;;;5033799;28;20386;-70
2021/10/29 04:56:14;;;;;;;29.98;10.85;;;3.00;99.90;;;;;;5032907;28;20025;-70
2021/10/29 04:58:40;;;;;;;17.80;10.07;;;2.90;99.90;;;;;;5048825;28;20032;-70
2021/10/29 05:01:05;;;;;;;15.32;10.25;;;2.90;99.90;;;;;;5053518;28;20096;-70
2021/10/29 05:03:32;;;;;;;13.90;9.80;;;2.80;99.90;;;;;;5038954;28;20129;-70
2021/10/29 05:05:57;;;;;;;15.88;10.80;;;2.80;99.90;;;;;;5031608;28;20018;-70
2021/10/29 05:08:23;;;;;;;15.77;10.80;;;2.90;99.90;;;;;;5033146;28;20083;-70
2021/10/29 05:10:49;;;;;;;22.48;12.55;;;2.70;99.90;;;;;;5033743;28;20097;-70
2021/10/29 05:13:14;;;;;;;29.55;12.00;;;2.70;99.90;;;;;;5032929;28;20429;-70
2021/10/29 05:15:41;;;;;;;17.58;9.93;;;2.70;99.90;;;;;;5035691;28;20534;-70
2021/10/29 05:18:07;;;;;;;18.98;11.35;;;2.70;99.90;;;;;;5053269;28;20434;-71
2021/10/29 05:20:33;;;;;;;16.98;11.68;;;2.60;99.90;;;;;;5035286;28;20474;-70
2021/10/29 05:22:58;;;;;;;20.40;12.93;;;2.80;99.90;;;;;;5052515;28;20036;-77
2021/10/29 05:25:24;;;;;;;17.63;12.60;;;2.70;99.90;;;;;;5052472;28;20032;-76
2021/10/29 05:27:50;;;;;;;20.42;11.63;;;2.80;99.90;;;;;;5052455;28;20568;-77
2021/10/29 05:30:15;;;;;;;19.40;12.15;;;3.00;99.90;;;;;;5053110;28;20506;-69
2021/10/29 05:32:41;;;;;;;46.22;14.88;;;3.10;99.90;;;;;;5052812;28;20028;-70
2021/10/29 05:35:08;;;;;;;18.38;12.75;;;2.90;99.90;;;;;;5051805;28;20504;-70
2021/10/29 05:37:35;;;;;;;40.33;12.32;;;3.00;99.90;;;;;;5052581;28;20037;-69
2021/10/29 05:40:01;;;;;;;13.93;10.20;;;2.90;99.90;;;;;;5052904;28;20033;-69
2021/10/29 05:42:28;;;;;;;20.67;11.80;;;2.90;99.90;;;;;;5052516;28;20099;-69
2021/10/29 05:44:54;;;;;;;24.05;12.20;;;2.90;99.90;;;;;;5034356;28;20120;-71
2021/10/29 05:47:21;;;;;;;21.52;12.77;;;2.90;99.90;;;;;;5053326;28;20487;-69
2021/10/29 05:49:47;;;;;;;31.48;17.30;;;2.90;99.90;;;;;;5052953;28;20017;-69
2021/10/29 05:52:20;;;;;;;48.15;31.35;;;2.90;99.90;;;;;;5052498;28;20561;-70
2021/10/29 05:57:25;;;;;;;22.50;16.17;;;2.80;99.90;;;;;;5052394;28;20025;-62
2021/10/29 05:59:52;;;;;;;15.95;11.05;;;2.90;99.90;;;;;;5052320;28;20025;-64
2021/10/29 06:02:17;;;;;;;22.63;17.00;;;3.00;99.90;;;;;;5044762;28;20398;-65
2021/10/29 06:04:43;;;;;;;17.65;12.15;;;3.00;99.90;;;;;;5049332;28;20029;-63
2021/10/29 06:07:09;;;;;;;18.95;13.10;;;2.90;99.90;;;;;;5043402;28;20014;-64
2021/10/29 06:09:35;;;;;;;16.17;11.63;;;3.00;99.90;;;;;;5047639;28;20056;-65
2021/10/29 06:12:01;;;;;;;16.23;10.63;;;3.00;99.90;;;;;;5039456;28;20410;-64
2021/10/29 06:14:28;;;;;;;17.10;13.57;;;3.10;99.90;;;;;;5041015;28;20104;-69
2021/10/29 06:16:57;;;;;;;25.23;10.32;;;3.10;99.90;;;;;;5039455;28;20037;-70
2021/10/29 06:19:24;;;;;;;20.02;9.93;;;3.10;99.90;;;;;;5018063;28;20032;-70
2021/10/29 06:22:01;;;;;;;17.13;11.00;;;3.10;99.90;;;;;;5052028;28;20036;-70
2021/10/29 06:24:28;;;;;;;18.73;10.82;;;2.80;99.90;;;;;;5032401;28;20059;-71
2021/10/29 06:27:02;;;;;;;16.92;11.85;;;2.80;99.90;;;;;;5051833;28;20479;-71
2021/10/29 06:29:28;;;;;;;19.33;11.63;;;2.80;99.90;;;;;;5033623;28;20025;-70
2021/10/29 06:31:54;;;;;;;22.00;13.00;;;2.80;99.90;;;;;;5033742;28;20375;-71
2021/10/29 06:34:21;;;;;;;22.00;12.32;;;2.90;99.90;;;;;;5050143;28;20036;-70
2021/10/29 06:36:47;;;;;;;22.75;13.27;;;2.90;99.90;;;;;;5051064;28;20020;-70
2021/10/29 06:39:12;;;;;;;25.90;12.25;;;3.00;99.90;;;;;;5051444;28;20039;-70
2021/10/29 06:41:38;;;;;;;27.77;13.90;;;3.10;99.90;;;;;;5042405;28;20029;-70
2021/10/29 06:44:15;;;;;;;13.95;10.30;;;3.20;99.90;;;;;;5042755;28;20017;-70
2021/10/29 06:46:47;;;;;;;17.25;10.98;;;3.10;99.90;;;;;;5041695;28;20024;-70
2021/10/29 06:51:59;;;;;;;15.38;10.20;;;3.00;99.90;;;;;;5025658;28;20479;-70
2021/10/29 06:52:24;;;;;;;15.57;10.38;;;3.00;99.90;;;;;;5039120;28;20021;-70
2021/10/29 07:40:44;;;;;;;14.32;8.50;;;6.00;99.90;;;;;;5052399;28;20055;-71
2021/10/29 07:43:13;;;;;;;9.57;8.45;;;6.60;99.90;;;;;;5051809;28;20036;-70
2021/10/29 07:45:40;;;;;;;10.45;8.10;;;7.60;99.90;;;;;;5051325;28;20033;-71
2021/10/29 07:48:06;;;;;;;11.68;8.30;;;8.70;99.90;;;;;;5051750;28;20140;-71
2021/10/29 07:50:32;;;;;;;11.65;8.18;;;8.70;99.90;;;;;;5051778;28;20100;-72
2021/10/29 07:52:59;;;;;;;9.27;7.00;;;9.10;99.90;;;;;;5051275;28;20025;-71
2021/10/29 07:55:27;;;;;;;7.93;6.57;;;9.90;99.90;;;;;;5050813;28;20532;-71
2021/10/29 07:57:59;;;;;;;9.15;7.28;;;9.70;99.90;;;;;;5050677;28;20154;-68
2021/10/29 08:00:25;;;;;;;;;;;8.60;99.90;;;;;;5052903;28;20048;-67
2021/10/29 08:02:51;;;;;;;10.63;7.75;;;7.80;99.90;;;;;;5054950;28;20314;-64
2021/10/29 08:05:17;;;;;;;9.63;7.55;;;7.00;99.90;;;;;;5053532;28;20654;-63
2021/10/29 08:07:43;;;;;;;10.85;8.18;;;6.40;99.90;;;;;;5055042;28;20024;-64
2021/10/29 08:10:10;;;;;;;12.23;8.77;;;6.10;99.90;;;;;;5055123;28;20021;-65
2021/10/29 08:12:37;;;;;;;10.88;8.43;;;5.70;99.90;;;;;;5054868;28;20025;-63
2021/10/29 08:15:05;;;;;;;11.95;8.75;;;5.60;99.90;;;;;;5054220;28;20104;-64
2021/10/29 08:17:33;;;;;;;11.88;8.93;;;5.50;99.90;;;;;;5055727;28;20036;-65
2021/10/29 08:20:00;;;;;;;11.38;8.60;;;5.60;99.90;;;;;;5064503;28;20089;-64
2021/10/29 08:22:26;;;;;;;10.68;8.52;;;5.60;99.90;;;;;;5065230;28;20029;-63
2021/10/29 08:24:52;;;;;;;10.13;7.97;;;6.10;99.90;;;;;;5057215;28;20159;-64
2021/10/29 08:27:18;;;;;;;9.88;8.20;;;6.90;99.90;;;;;;5054507;28;20112;-63
2021/10/29 08:29:43;;;;;;;12.95;8.25;;;7.10;99.90;;;;;;5054324;28;20029;-63
2021/10/29 08:32:10;;;;;;;8.13;7.18;;;7.40;99.90;;;;;;5054792;28;20021;-64
2021/10/29 08:34:36;;;;;;;9.80;7.93;;;7.70;99.90;;;;;;5053918;28;20025;-64
2021/10/29 08:37:04;;;;;;;9.60;8.48;;;8.10;99.90;;;;;;5054359;28;20035;-63
2021/10/29 08:39:31;;;;;;;12.48;9.32;;;8.20;99.90;;;;;;5054063;28;20029;-64
2021/10/29 08:41:58;;;;;;;11.68;8.30;;;9.00;99.90;;;;;;5054358;28;20032;-64
2021/10/29 08:44:24;;;;;;;9.15;8.02;;;10.50;99.90;;;;;;5053670;28;20025;-63
2021/10/29 08:46:50;;;;;;;10.57;8.15;;;11.50;99.90;;;;;;5054297;28;20083;-64
2021/10/29 08:49:17;;;;;;;11.95;7.97;;;11.90;99.90;;;;;;5053818;28;20032;-64
2021/10/29 08:51:47;;;;;;;11.23;8.57;;;11.70;99.90;;;;;;5047963;28;20028;-72
2021/10/29 08:54:13;;;;;;;11.85;8.32;;;11.20;99.90;;;;;;5053762;28;20025;-72
2021/10/29 08:56:40;;;;;;;14.50;9.48;;;11.00;99.90;;;;;;5065095;28;20044;-71
2021/10/29 08:59:19;;;;;;;9.93;7.68;;;10.80;99.90;;;;;;5061435;28;20025;-70
2021/10/29 09:02:25;;;;;;;10.23;8.68;;;10.30;99.90;;;;;;5064315;28;20054;-70
2021/10/29 09:04:57;;;;;;;9.43;8.07;;;10.30;99.90;;;;;;5030501;28;20123;-73
2021/10/29 09:32:41;;;;;;;12.98;7.50;;;12.80;99.90;;;;;;5078019;22;20097;-73
2021/10/29 09:35:16;;;;;;;9.18;7.50;;;14.20;99.90;;;;;;5051634;28;20040;-72
2021/10/29 09:38:03;;;;;;;10.85;7.82;;;14.50;99.90;;;;;;5063731;28;20481;-72
2021/10/29 09:40:32;;;;;;;7.72;6.80;;;14.60;99.90;;;;;;5064462;28;20107;-74
2021/10/29 09:43:09;;;;;;;11.70;8.02;;;14.70;99.90;;;;;;5065667;28;20025;-74
2021/10/29 09:45:34;;;;;;;7.82;7.03;;;15.10;99.90;;;;;;5063812;28;20036;-74
2021/10/29 09:48:20;;;;;;;8.43;6.75;;;15.80;99.90;;;;;;5064749;28;20099;-73
2021/10/29 09:50:52;;;;;;;9.73;6.80;;;16.20;99.90;;;;;;5061252;28;20063;-74
2021/10/29 09:56:10;;;;;;;7.82;7.00;;;16.10;99.90;;;;;;5066085;28;20101;-73
2021/10/29 09:58:36;;;;;;;8.48;6.65;;;14.40;99.90;;;;;;5076281;28;20441;-72
2021/10/29 10:01:03;;;;;;;10.70;7.25;;;14.60;99.90;;;;;;5064144;28;20021;-75
2021/10/29 10:03:30;;;;;;;10.25;6.88;;;15.70;99.90;;;;;;5070871;28;20028;-75
2021/10/29 10:05:56;;;;;;;7.63;6.82;;;16.40;99.90;;;;;;5063328;28;20020;-74
2021/10/29 10:08:26;;;;;;;8.00;6.53;;;16.20;99.90;;;;;;5072202;28;20081;-73
2021/10/29 10:10:53;;;;;;;7.85;6.82;;;15.30;99.90;;;;;;5072405;28;20027;-75
2021/10/29 10:13:20;;;;;;;8.68;6.28;;;16.10;99.90;;;;;;5072238;28;20474;-74
2021/10/29 10:15:50;;;;;;;8.05;6.72;;;16.70;99.90;;;;;;5071542;28;20048;-75
2021/10/29 10:18:19;;;;;;;7.07;6.38;;;17.10;99.90;;;;;;5072071;28;20016;-75
2021/10/29 10:20:45;;;;;;;7.70;6.32;;;17.60;99.90;;;;;;5072110;28;20462;-74
2021/10/29 10:23:17;;;;;;;9.45;6.70;;;17.90;99.90;;;;;;5072351;28;20020;-73
2021/10/29 10:47:01;;;;;;;11.18;7.43;;;19.20;97.90;;;;;;5089221;28;20016;-74
2021/10/29 10:49:45;;;;;;;7.68;6.97;;;19.20;98.00;;;;;;5072836;28;20013;-74
2021/10/29 10:52:22;;;;;;;9.88;6.60;;;19.00;97.90;;;;;;5073771;28;20028;-74
2021/10/29 10:54:54;;;;;;;8.20;7.40;;;18.20;99.40;;;;;;5073695;28;20017;-73
2021/10/29 10:59:56;;;;;;;9.20;6.47;;;18.80;97.80;;;;;;5084107;28;20028;-75
2021/10/29 11:10:19;;;;;;;7.75;6.22;;;19.60;96.60;;;;;;5072095;28;20494;-75
2021/10/29 11:12:46;;;;;;;9.80;6.72;;;20.00;97.20;;;;;;5071425;28;20506;-74
2021/10/29 11:15:22;;;;;;;8.93;6.22;;;20.70;97.20;;;;;;5070077;28;20371;-74
2021/10/29 11:17:49;;;;;;;12.60;7.25;;;20.80;95.90;;;;;;5064331;28;20432;-74
2021/10/29 11:20:57;;;;;;;10.07;6.75;;;21.80;95.00;;;;;;5058159;28;20024;-74
2021/10/29 11:23:34;;;;;;;8.43;6.85;;;21.40;93.90;;;;;;5066316;28;20037;-73
2021/10/29 11:26:08;;;;;;;7.53;6.50;;;21.90;93.20;;;;;;5071025;28;20373;-73
2021/10/29 11:28:37;;;;;;;7.63;6.63;;;22.50;92.20;;;;;;5078302;28;20016;-73
2021/10/29 11:31:06;;;;;;;7.72;6.55;;;21.90;92.20;;;;;;5071429;28;20017;-72
2021/10/29 11:33:33;;;;;;;7.43;6.72;;;22.10;91.70;;;;;;5070720;28;20036;-73
2021/10/29 11:36:10;;;;;;;9.40;6.95;;;21.80;91.70;;;;;;5073880;28;20024;-73
2021/10/29 11:38:38;;;;;;;7.68;6.90;;;21.90;91.50;;;;;;5075682;28;20517;-72
2021/10/29 11:41:08;;;;;;;6.15;5.55;;;21.60;92.30;;;;;;5061603;28;20045;-72
2021/10/29 11:43:35;;;;;;;6.63;5.55;;;22.10;91.80;;;;;;5055078;28;20021;-72
2021/10/29 11:46:04;;;;;;;9.00;5.82;;;22.70;90.60;;;;;;5054583;28;20112;-73
2021/10/29 11:48:32;;;;;;;6.13;5.63;;;23.40;88.60;;;;;;5050731;28;20073;-71
2021/10/29 11:51:08;;;;;;;6.05;5.35;;;23.50;84.80;;;;;;5069097;28;20039;-78
2021/10/29 11:53:36;;;;;;;9.85;6.03;;;23.40;90.00;;;;;;5055997;28;20025;-79
2021/10/29 11:56:07;;;;;;;8.23;6.40;;;23.20;86.50;;;;;;5070239;28;20020;-79
2021/10/29 11:58:47;;;;;;;6.78;6.07;;;23.60;85.70;;;;;;5093836;28;20020;-79
2021/10/29 12:09:33;;;;;;;7.97;6.15;;;25.20;81.30;;;;;;5075657;28;20078;-80
2021/10/29 12:12:18;;;;;;;8.57;6.43;;;25.10;78.50;;;;;;5075648;28;20017;-80
2021/10/29 12:14:46;;;;;;;6.18;5.65;;;24.60;81.70;;;;;;5075036;28;20021;-81
2021/10/29 12:17:21;;;;;;;9.73;6.20;;;24.40;80.90;;;;;;5075058;28;20032;-81
2021/10/29 12:19:50;;;;;;;7.07;5.63;;;24.70;78.30;;;;;;5074923;28;20025;-81
2021/10/29 12:22:29;;;;;;;5.63;4.60;;;24.40;76.20;;;;;;5074879;28;20028;-71
2021/10/29 12:27:59;;;;;;;10.00;6.20;;;24.10;77.00;;;;;;5039910;28;20064;-70
2021/10/29 13:04:06;;;;;;;6.35;5.15;;;25.80;70.70;;;;;;5100452;28;20032;-74
2021/10/29 13:06:33;;;;;;;4.55;4.15;;;25.40;71.00;;;;;;5100517;28;20466;-75
2021/10/29 13:09:00;;;;;;;5.50;4.60;;;26.60;68.00;;;;;;5099969;28;20016;-75
2021/10/29 13:11:31;;;;;;;6.57;4.07;;;27.10;68.00;;;;;;5101716;28;20016;-74
2021/10/29 13:14:00;;;;;;;4.30;3.90;;;27.20;64.90;;;;;;5096775;28;20027;-74
2021/10/29 13:16:27;;;;;;;4.45;4.00;;;27.00;63.10;;;;;;5093107;28;20473;-75
2021/10/29 13:51:13;;;;;;;7.38;4.15;;;25.80;64.10;;;;;;5062725;28;20114;-74
2021/10/29 13:54:03;;;;;;;4.82;3.78;;;26.40;63.70;;;;;;5062306;28;20023;-76
2021/10/29 14:29:00;;;;;;;6.53;3.92;;;21.40;78.20;;;;;;5063413;28;20073;-76
2021/10/29 14:31:38;;;;;;;4.72;3.30;;;21.90;76.70;;;;;;5063197;28;20055;-75
2021/10/29 14:34:17;;;;;;;6.38;4.00;;;22.30;75.40;;;;;;5062421;28;20029;-75
2021/10/29 14:36:55;;;;;;;4.13;3.40;;;22.00;76.40;;;;;;5061742;28;20074;-75
2021/10/29 14:40:13;;;;;;;6.82;4.10;;;22.60;76.50;;;;;;5061955;28;20013;-75
2021/10/29 15:45:45;;;;;;;5.63;3.90;;;14.60;99.50;;;;;;5030420;28;20075;-70
2021/10/29 15:48:24;;;;;;;7.22;4.03;;;14.40;99.90;;;;;;5031013;28;20049;-70
2021/10/29 15:50:49;;;;;;;8.77;3.75;;;14.20;99.90;;;;;;5031235;28;20076;-71
2021/10/29 15:53:15;;;;;;;6.85;3.97;;;13.90;99.90;;;;;;5013066;28;20430;-71
2021/10/29 15:55:54;;;;;;;5.97;3.75;;;13.90;99.90;;;;;;5030522;28;20441;-71
2021/10/29 15:58:30;;;;;;;8.90;3.70;;;13.60;99.90;;;;;;5030934;28;20038;-71
2021/10/29 16:03:55;;;;;;;8.05;4.40;;;13.20;99.90;;;;;;5031134;28;20028;-71
2021/10/29 16:19:29;;;;;;;9.48;4.68;;;12.50;99.90;;;;;;5050090;28;20033;-71
2021/10/29 16:21:56;;;;;;;9.40;5.03;;;12.40;99.90;;;;;;5053468;28;20021;-70
2021/10/29 16:24:21;;;;;;;8.35;5.30;;;12.10;99.90;;;;;;5053971;28;20494;-71
2021/10/29 16:26:49;;;;;;;9.02;4.70;;;11.90;99.90;;;;;;5060748;28;20021;-71
2021/10/29 16:29:20;;;;;;;8.02;4.90;;;11.90;99.90;;;;;;5061972;28;20021;-71
2021/10/29 16:31:46;;;;;;;12.27;5.90;;;11.80;99.90;;;;;;5057347;28;20066;-71
2021/10/29 16:34:12;;;;;;;10.98;5.47;;;11.70;99.90;;;;;;5055696;28;20471;-71
2021/10/29 16:36:38;;;;;;;7.85;4.68;;;11.60;99.90;;;;;;5053570;28;20480;-71
2021/10/29 16:39:05;;;;;;;7.70;6.05;;;11.60;99.90;;;;;;5055033;28;20098;-71
2021/10/29 16:41:31;;;;;;;9.32;5.97;;;11.40;99.90;;;;;;5054235;28;20021;-71
2021/10/29 16:43:57;;;;;;;8.23;4.60;;;11.30;99.90;;;;;;5053973;28;20040;-74
2021/10/29 16:46:23;;;;;;;7.45;5.75;;;11.40;99.90;;;;;;5042505;28;20096;-74
2021/10/29 16:48:49;;;;;;;12.18;6.25;;;11.40;99.90;;;;;;5033684;28;20041;-75
2021/10/29 16:51:15;;;;;;;6.00;4.97;;;11.20;99.90;;;;;;5033639;28;20107;-75
2021/10/29 16:53:44;;;;;;;8.18;5.72;;;11.20;99.90;;;;;;5034108;28;20049;-75
2021/10/29 16:56:12;;;;;;;6.97;5.45;;;11.00;99.90;;;;;;5050149;28;20017;-75
2021/10/29 16:58:38;;;;;;;10.48;6.07;;;11.00;99.90;;;;;;5053589;28;20526;-76
2021/10/29 17:01:04;;;;;;;10.60;6.22;;;10.80;99.90;;;;;;5053888;28;20075;-75
2021/10/29 17:03:30;;;;;;;10.68;5.57;;;10.70;99.90;;;;;;5053550;28;20025;-73
2021/10/29 17:05:56;;;;;;;8.85;5.65;;;10.50;99.90;;;;;;5052043;28;20052;-73
2021/10/29 17:08:22;;;;;;;8.98;5.28;;;10.40;99.90;;;;;;5029358;28;20029;-74
2021/10/29 17:10:47;;;;;;;11.88;6.68;;;10.40;99.90;;;;;;5038683;28;20017;-68
2021/10/29 17:13:14;;;;;;;12.70;8.70;;;10.30;99.90;;;;;;5015409;28;20035;-72
2021/10/29 17:15:39;;;;;;;13.30;9.02;;;10.20;99.90;;;;;;5040432;28;20099;-76
2021/10/29 17:18:05;;;;;;;8.55;5.50;;;10.00;99.90;;;;;;5043181;28;20017;-78
2021/10/29 17:20:32;;;;;;;9.77;5.88;;;10.00;99.90;;;;;;5040612;28;20034;-76
2021/10/29 17:22:58;;;;;;;11.05;6.20;;;10.00;99.90;;;;;;5024089;28;20025;-76
2021/10/29 17:25:24;;;;;;;12.25;7.40;;;9.90;99.90;;;;;;5042529;28;20029;-76
2021/10/29 17:27:50;;;;;;;9.73;6.43;;;9.80;99.90;;;;;;5040992;28;20029;-77
2021/10/29 17:30:16;;;;;;;8.82;5.70;;;9.80;99.90;;;;;;5042178;28;20088;-76
2021/10/29 17:32:44;;;;;;;9.88;6.47;;;9.40;99.90;;;;;;5042549;28;20021;-77
2021/10/29 17:35:10;;;;;;;11.25;6.95;;;9.60;99.90;;;;;;5042132;28;20017;-77
2021/10/29 17:37:36;;;;;;;11.23;7.95;;;9.60;99.90;;;;;;5041557;28;20026;-77
2021/10/29 17:40:05;;;;;;;8.90;6.07;;;9.50;99.90;;;;;;5041201;28;20035;-76
2021/10/29 17:42:31;;;;;;;10.77;6.18;;;9.40;99.90;;;;;;5042774;28;20025;-77
2021/10/29 17:44:58;;;;;;;10.77;7.45;;;9.40;99.90;;;;;;5041228;28;20036;-77
2021/10/29 17:47:25;;;;;;;11.85;7.45;;;9.40;99.90;;;;;;5042931;28;20049;-76
2021/10/29 17:49:51;;;;;;;17.08;7.57;;;9.30;99.90;;;;;;5044468;28;20549;-76